Time;durP1;ratioP1;P1;durP2;ratioP2;P2;SDS_P1;SDS_P2;PMS_P1;PMS_P2;Temp;Humidity;BMP_temperature;BMP_pressure;BME280_temperature;BME280_humidity;BME280_pressure;Samples;Min_cycle;Max_cycle;Signal;HPM_P1;HPM_P2
2023/03/10 00:01:42;;;;;;;10.40;10.10;;;8.00;99.90;;;;;;5153009;27;20240;-82
2023/03/10 00:04:11;;;;;;;10.17;9.87;;;8.00;99.90;;;;;;5142206;27;20272;-82
2023/03/10 00:06:39;;;;;;;10.70;10.40;;;8.00;99.90;;;;;;5145350;27;20251;-83
2023/03/10 00:11:55;;;;;;;10.77;10.47;;;8.00;99.90;;;;;;5147841;27;20239;-83
2023/03/10 00:14:25;;;;;;;10.43;10.13;;;8.10;99.90;;;;;;5140439;27;20231;-82
2023/03/10 00:16:54;;;;;;;10.73;10.43;;;8.10;99.90;;;;;;5148848;27;20220;-82
2023/03/10 00:19:25;;;;;;;10.30;10.00;;;8.10;99.90;;;;;;5147260;27;20245;-83
2023/03/10 00:21:53;;;;;;;10.83;10.53;;;8.10;99.90;;;;;;5148529;27;20303;-82
2023/03/10 00:24:25;;;;;;;10.37;10.07;;;8.10;99.90;;;;;;5148247;27;21037;-82
2023/03/10 00:27:02;;;;;;;10.63;10.33;;;8.10;99.90;;;;;;5148599;27;20224;-83
2023/03/10 00:29:30;;;;;;;10.70;10.40;;;8.20;99.90;;;;;;5148060;27;20228;-82
2023/03/10 00:32:00;;;;;;;10.50;10.20;;;8.10;99.90;;;;;;5148193;27;20304;-83
2023/03/10 00:34:29;;;;;;;10.40;10.10;;;8.10;99.90;;;;;;5148191;27;20228;-82
2023/03/10 00:36:59;;;;;;;10.37;10.07;;;8.10;99.90;;;;;;5148110;27;20263;-83
2023/03/10 00:39:37;;;;;;;10.43;10.13;;;8.10;99.90;;;;;;5148143;27;20292;-82
2023/03/10 00:42:06;;;;;;;10.67;10.37;;;8.10;99.90;;;;;;5148284;27;20235;-82
2023/03/10 00:44:36;;;;;;;10.60;10.30;;;8.20;99.90;;;;;;5149752;27;20216;-82
2023/03/10 00:47:09;;;;;;;10.90;10.60;;;8.20;99.90;;;;;;5153770;27;20235;-83
2023/03/10 00:49:37;;;;;;;10.80;10.50;;;8.20;99.90;;;;;;5138162;27;20237;-82
2023/03/10 00:52:05;;;;;;;10.47;10.17;;;8.20;99.90;;;;;;5133858;27;20310;-82
2023/03/10 00:54:41;;;;;;;10.40;10.10;;;8.20;99.90;;;;;;5150346;27;20239;-83
2023/03/10 00:57:13;;;;;;;10.50;10.20;;;8.30;99.90;;;;;;5127282;28;20228;-83
2023/03/10 00:59:45;;;;;;;10.10;9.80;;;8.30;99.90;;;;;;5129346;27;20240;-83
2023/03/10 01:02:12;;;;;;;10.20;9.90;;;8.30;99.90;;;;;;5131616;27;20231;-83
2023/03/10 01:04:40;;;;;;;10.40;10.10;;;8.40;99.90;;;;;;5132291;27;20242;-82
2023/03/10 01:07:10;;;;;;;10.30;10.00;;;8.30;99.90;;;;;;5132876;27;20239;-83
2023/03/10 01:09:48;;;;;;;10.33;10.03;;;8.30;99.90;;;;;;5141135;28;20243;-83
2023/03/10 01:12:17;;;;;;;10.20;9.90;;;8.30;99.90;;;;;;5137682;27;20259;-83
2023/03/10 01:14:47;;;;;;;10.77;10.47;;;8.30;99.90;;;;;;5130685;27;20280;-82
2023/03/10 01:17:16;;;;;;;10.57;10.27;;;8.40;99.90;;;;;;5129569;27;20248;-83
2023/03/10 01:19:46;;;;;;;10.40;10.10;;;8.40;99.90;;;;;;5129135;27;20225;-82
2023/03/10 01:22:16;;;;;;;10.37;10.07;;;8.40;99.90;;;;;;5128246;27;20221;-83
2023/03/10 01:24:47;;;;;;;10.10;9.80;;;8.50;99.90;;;;;;5127702;28;20217;-82
2023/03/10 01:27:15;;;;;;;10.30;10.00;;;8.60;99.90;;;;;;5127604;27;20322;-83
2023/03/10 01:29:43;;;;;;;10.47;10.17;;;8.60;99.90;;;;;;5126772;27;20237;-83
2023/03/10 01:32:13;;;;;;;10.47;10.17;;;8.70;99.90;;;;;;5126512;27;20263;-82
2023/03/10 01:34:42;;;;;;;10.30;10.00;;;8.80;99.90;;;;;;5126259;27;20320;-82
2023/03/10 01:37:12;;;;;;;10.33;10.03;;;8.90;99.90;;;;;;5126549;27;20237;-83
2023/03/10 01:39:41;;;;;;;10.13;9.83;;;9.10;99.90;;;;;;5126344;27;20312;-83
2023/03/10 01:42:19;;;;;;;10.40;10.10;;;9.20;99.90;;;;;;5126590;27;20288;-83
2023/03/10 01:45:08;;;;;;;10.27;9.97;;;9.30;99.90;;;;;;5126925;27;20228;-82
2023/03/10 01:47:37;;;;;;;10.27;9.97;;;9.40;99.90;;;;;;5126995;27;20297;-82
2023/03/10 01:50:07;;;;;;;10.50;10.20;;;9.50;99.90;;;;;;5126492;27;20725;-82
2023/03/10 01:52:36;;;;;;;10.53;10.23;;;9.60;99.90;;;;;;5126084;27;20241;-82
2023/03/10 01:55:12;;;;;;;10.33;10.03;;;9.60;99.90;;;;;;5125563;27;20221;-82
2023/03/10 01:57:51;;;;;;;10.33;10.03;;;9.60;99.90;;;;;;5125777;27;20232;-81
2023/03/10 02:00:21;;;;;;;10.20;9.90;;;9.60;99.90;;;;;;5126621;27;20232;-82
2023/03/10 02:03:02;;;;;;;10.10;9.80;;;9.60;99.90;;;;;;5137237;27;20220;-82
2023/03/10 02:05:31;;;;;;;10.30;10.00;;;9.50;99.90;;;;;;5146588;27;20220;-82
2023/03/10 02:08:01;;;;;;;10.40;10.10;;;9.50;99.90;;;;;;5146471;27;20697;-82
2023/03/10 02:10:29;;;;;;;10.40;10.10;;;9.50;99.90;;;;;;5150858;27;20247;-82
2023/03/10 02:13:01;;;;;;;10.17;9.87;;;9.50;99.90;;;;;;5148764;27;20263;-82
2023/03/10 02:15:29;;;;;;;10.20;9.90;;;9.50;99.90;;;;;;5147809;27;20212;-82
2023/03/10 02:17:57;;;;;;;10.27;9.97;;;9.40;99.90;;;;;;5147185;27;20228;-83
2023/03/10 02:20:33;;;;;;;10.00;9.70;;;9.40;99.90;;;;;;5147121;27;20330;-82
2023/03/10 02:23:05;;;;;;;10.07;9.77;;;9.40;99.90;;;;;;5145987;27;20250;-82
2023/03/10 02:25:43;;;;;;;10.07;9.77;;;9.50;99.90;;;;;;5146249;27;20303;-82
2023/03/10 02:28:22;;;;;;;10.00;9.70;;;9.50;99.90;;;;;;5146132;27;20232;-82
2023/03/10 02:30:52;;;;;;;9.80;9.50;;;9.40;99.90;;;;;;5147133;27;20251;-83
2023/03/10 02:33:29;;;;;;;9.60;9.30;;;9.30;99.90;;;;;;5147692;27;20227;-83
2023/03/10 02:38:45;;;;;;;9.67;9.37;;;9.40;99.90;;;;;;5149633;27;20220;-82
2023/03/10 02:41:25;;;;;;;9.80;9.50;;;9.30;99.90;;;;;;5148211;27;20237;-82
2023/03/10 02:44:03;;;;;;;9.67;9.37;;;9.30;99.90;;;;;;5148773;27;20283;-82
2023/03/10 02:46:32;;;;;;;9.77;9.47;;;9.30;99.90;;;;;;5149238;27;20238;-82
2023/03/10 02:49:01;;;;;;;9.90;9.60;;;9.30;99.90;;;;;;5148701;27;20698;-83
2023/03/10 02:51:33;;;;;;;9.73;9.43;;;9.20;99.90;;;;;;5149251;27;20239;-82
2023/03/10 02:54:00;;;;;;;9.80;9.50;;;9.20;99.90;;;;;;5149803;27;20575;-82
2023/03/10 02:56:29;;;;;;;9.80;9.50;;;9.10;99.90;;;;;;5153292;27;20272;-83
2023/03/10 02:59:01;;;;;;;9.90;9.60;;;9.10;99.90;;;;;;5159817;27;20232;-83
2023/03/10 03:01:30;;;;;;;9.97;9.67;;;9.00;99.90;;;;;;5160152;27;20231;-83
2023/03/10 03:03:58;;;;;;;10.00;9.70;;;8.90;99.90;;;;;;5153959;27;20229;-82
2023/03/10 03:06:27;;;;;;;10.20;9.90;;;8.90;99.90;;;;;;5150898;27;20235;-82
2023/03/10 03:08:56;;;;;;;9.93;9.63;;;8.80;99.90;;;;;;5149997;27;20227;-82
2023/03/10 03:11:26;;;;;;;9.80;9.50;;;8.80;99.90;;;;;;5149449;27;20303;-83
2023/03/10 03:13:56;;;;;;;9.90;9.60;;;8.80;99.90;;;;;;5148857;27;20280;-82
2023/03/10 03:16:34;;;;;;;9.90;9.60;;;8.80;99.90;;;;;;5149305;27;20240;-82
2023/03/10 03:19:03;;;;;;;9.67;9.37;;;8.70;99.90;;;;;;5148839;27;20254;-82
2023/03/10 03:21:33;;;;;;;10.00;9.70;;;8.60;99.90;;;;;;5148805;27;20236;-83
2023/03/10 03:24:04;;;;;;;10.00;9.70;;;8.60;99.90;;;;;;5148840;27;20243;-82
2023/03/10 03:26:32;;;;;;;10.20;9.90;;;8.50;99.90;;;;;;5147711;27;20259;-82
2023/03/10 03:29:01;;;;;;;10.17;9.87;;;8.50;99.90;;;;;;5147934;27;20227;-83
2023/03/10 03:31:41;;;;;;;10.00;9.70;;;8.40;99.90;;;;;;5147600;27;20252;-82
2023/03/10 03:34:08;;;;;;;10.10;9.80;;;8.40;99.90;;;;;;5150393;27;20247;-83
2023/03/10 03:36:38;;;;;;;10.00;9.70;;;8.40;99.90;;;;;;5149279;27;20235;-82
2023/03/10 03:39:07;;;;;;;10.17;9.87;;;8.40;99.90;;;;;;5149712;27;20281;-82
2023/03/10 03:41:36;;;;;;;10.20;9.90;;;8.40;99.90;;;;;;5147556;27;20292;-82
2023/03/10 03:44:07;;;;;;;10.23;9.93;;;8.30;99.90;;;;;;5148265;27;20295;-82
2023/03/10 03:46:38;;;;;;;10.03;9.73;;;8.30;99.90;;;;;;5151512;27;20284;-82
2023/03/10 03:49:06;;;;;;;10.10;9.80;;;8.20;99.90;;;;;;5150164;27;21006;-82
2023/03/10 03:51:36;;;;;;;9.90;9.60;;;8.20;99.90;;;;;;5150708;27;20285;-82
2023/03/10 03:54:04;;;;;;;9.80;9.50;;;8.20;99.90;;;;;;5142532;27;20263;-82
2023/03/10 03:56:33;;;;;;;10.00;9.70;;;8.20;99.90;;;;;;5135407;27;20228;-83
2023/03/10 03:59:04;;;;;;;9.90;9.60;;;8.20;99.90;;;;;;5130252;27;20289;-83
2023/03/10 04:01:34;;;;;;;9.43;9.13;;;8.10;99.90;;;;;;5130061;27;20233;-82
2023/03/10 04:04:12;;;;;;;9.90;9.60;;;8.10;99.90;;;;;;5129864;27;20284;-82
2023/03/10 04:06:43;;;;;;;9.70;9.40;;;8.10;99.90;;;;;;5130680;27;20276;-82
2023/03/10 04:09:12;;;;;;;9.60;9.30;;;8.10;99.90;;;;;;5131392;27;20237;-82
2023/03/10 04:11:41;;;;;;;9.87;9.57;;;8.10;99.90;;;;;;5138380;27;20247;-82
2023/03/10 04:14:10;;;;;;;9.60;9.30;;;8.10;99.90;;;;;;5150909;27;20236;-82
2023/03/10 04:16:40;;;;;;;9.47;9.17;;;8.00;99.90;;;;;;5150791;27;20227;-82
2023/03/10 04:19:11;;;;;;;9.50;9.20;;;8.00;99.90;;;;;;5150774;27;20240;-83
2023/03/10 04:21:39;;;;;;;9.80;9.50;;;8.00;99.90;;;;;;5149629;27;20232;-83
2023/03/10 04:24:08;;;;;;;9.63;9.33;;;8.00;99.90;;;;;;5149384;27;20228;-83
2023/03/10 04:26:38;;;;;;;9.33;9.03;;;8.00;99.90;;;;;;5148613;27;20228;-82
2023/03/10 04:29:06;;;;;;;9.57;9.27;;;8.00;99.90;;;;;;5149184;27;20233;-84
2023/03/10 04:31:36;;;;;;;9.23;8.93;;;8.10;99.90;;;;;;5149630;27;20267;-83
2023/03/10 04:34:06;;;;;;;9.70;9.40;;;8.10;99.90;;;;;;5158531;27;20238;-82
2023/03/10 04:36:45;;;;;;;9.50;9.20;;;8.20;99.90;;;;;;5158815;27;20298;-83
2023/03/10 04:39:13;;;;;;;9.60;9.30;;;8.20;99.90;;;;;;5147760;27;20231;-83
2023/03/10 04:41:42;;;;;;;9.70;9.40;;;8.30;99.90;;;;;;5147436;27;20349;-83
2023/03/10 04:44:12;;;;;;;9.70;9.40;;;8.30;99.90;;;;;;5147311;27;20323;-83
2023/03/10 04:46:41;;;;;;;9.60;9.30;;;8.40;99.90;;;;;;5147604;27;20222;-82
2023/03/10 04:49:14;;;;;;;9.60;9.30;;;8.40;99.90;;;;;;5148141;27;20323;-83
2023/03/10 04:51:43;;;;;;;9.27;8.97;;;8.50;99.90;;;;;;5148211;27;20235;-83
2023/03/10 04:54:10;;;;;;;9.33;9.03;;;8.60;99.90;;;;;;5148906;27;20228;-83
2023/03/10 04:56:39;;;;;;;9.70;9.40;;;8.60;99.90;;;;;;5147334;27;20228;-83
2023/03/10 04:59:09;;;;;;;9.37;9.07;;;8.70;99.90;;;;;;5149295;27;20300;-84
2023/03/10 05:01:38;;;;;;;9.30;9.00;;;8.80;99.90;;;;;;5149757;27;20282;-82
2023/03/10 05:04:07;;;;;;;9.50;9.20;;;8.80;99.90;;;;;;5149595;27;20225;-82
2023/03/10 05:06:38;;;;;;;9.33;9.03;;;8.90;99.90;;;;;;5149468;27;20220;-83
2023/03/10 05:09:16;;;;;;;9.40;9.10;;;9.00;99.90;;;;;;5148924;27;20264;-83
2023/03/10 05:11:45;;;;;;;9.43;9.13;;;9.10;99.90;;;;;;5149849;27;20242;-83
2023/03/10 05:14:14;;;;;;;9.30;9.00;;;9.20;99.90;;;;;;5149520;27;20265;-83
2023/03/10 05:16:43;;;;;;;9.40;9.10;;;9.20;99.90;;;;;;5150163;27;20260;-84
2023/03/10 05:19:13;;;;;;;9.40;9.10;;;9.30;99.90;;;;;;5151394;27;20238;-83
2023/03/10 05:21:43;;;;;;;9.43;9.13;;;9.30;99.90;;;;;;5151707;27;20244;-83
2023/03/10 05:24:14;;;;;;;9.20;8.90;;;9.30;99.90;;;;;;5150456;27;20231;-82
2023/03/10 05:26:42;;;;;;;9.37;9.07;;;9.30;99.90;;;;;;5149559;27;20266;-82
2023/03/10 05:29:11;;;;;;;9.20;8.90;;;9.20;99.90;;;;;;5149689;27;20243;-82
2023/03/10 05:31:41;;;;;;;9.30;9.00;;;9.20;99.90;;;;;;5150946;27;20295;-83
2023/03/10 05:34:10;;;;;;;9.90;9.60;;;9.20;99.90;;;;;;5149958;27;20252;-84
2023/03/10 05:36:39;;;;;;;9.73;9.43;;;9.20;99.90;;;;;;5155313;27;21040;-83
2023/03/10 05:39:09;;;;;;;10.07;9.77;;;9.10;99.90;;;;;;5155529;27;20255;-83
2023/03/10 05:41:41;;;;;;;10.30;10.00;;;9.10;99.90;;;;;;5155079;27;20228;-83
2023/03/10 05:44:09;;;;;;;10.10;9.80;;;9.10;99.90;;;;;;5151543;27;20248;-83
2023/03/10 05:46:36;;;;;;;10.20;9.90;;;9.10;99.90;;;;;;5151581;27;20216;-83
2023/03/10 05:49:07;;;;;;;10.10;9.80;;;9.10;99.90;;;;;;5151604;27;20252;-83
2023/03/10 05:51:35;;;;;;;9.80;9.50;;;9.10;99.90;;;;;;5149527;27;20236;-83
2023/03/10 05:54:06;;;;;;;9.90;9.60;;;9.10;99.90;;;;;;5150027;27;20262;-83
2023/03/10 05:56:34;;;;;;;9.60;9.30;;;9.10;99.90;;;;;;5150205;27;20235;-83
2023/03/10 05:59:13;;;;;;;9.80;9.50;;;9.10;99.90;;;;;;5150105;27;20224;-83
2023/03/10 06:01:46;;;;;;;10.10;9.80;;;9.10;99.90;;;;;;5150480;27;20243;-82
2023/03/10 06:04:13;;;;;;;9.90;9.60;;;9.10;99.90;;;;;;5150277;27;20239;-83
2023/03/10 06:06:43;;;;;;;10.00;9.70;;;9.10;99.90;;;;;;5149719;27;20271;-83
2023/03/10 06:09:12;;;;;;;10.00;9.70;;;9.10;99.90;;;;;;5149334;27;20259;-82
2023/03/10 06:11:41;;;;;;;10.10;9.80;;;9.10;99.90;;;;;;5148750;27;20270;-83
2023/03/10 06:14:12;;;;;;;9.83;9.53;;;9.10;99.90;;;;;;5148113;27;20284;-83
2023/03/10 06:16:41;;;;;;;10.00;9.70;;;9.10;99.90;;;;;;5148083;27;20220;-83
2023/03/10 06:19:10;;;;;;;9.77;9.47;;;9.10;99.90;;;;;;5146793;27;20224;-83
2023/03/10 06:21:39;;;;;;;9.90;9.60;;;9.10;99.90;;;;;;5146869;27;20318;-83
2023/03/10 06:24:09;;;;;;;10.10;9.80;;;9.10;99.90;;;;;;5138680;27;20234;-83
2023/03/10 06:26:38;;;;;;;9.73;9.43;;;9.10;99.90;;;;;;5148148;27;20307;-82
2023/03/10 06:29:08;;;;;;;9.80;9.50;;;9.10;99.90;;;;;;5147481;27;20223;-83
2023/03/10 06:34:24;;;;;;;9.60;9.30;;;9.20;99.90;;;;;;5148114;27;20235;-83
2023/03/10 06:36:54;;;;;;;9.63;9.33;;;9.20;99.90;;;;;;5156920;27;20232;-83
2023/03/10 06:39:23;;;;;;;9.83;9.53;;;9.20;99.90;;;;;;5154165;27;20232;-84
2023/03/10 06:41:53;;;;;;;9.57;9.27;;;9.20;99.90;;;;;;5160939;27;20246;-83
2023/03/10 06:44:22;;;;;;;9.70;9.40;;;9.30;99.90;;;;;;5161302;27;20216;-83
2023/03/10 06:47:03;;;;;;;9.77;9.47;;;9.30;99.90;;;;;;5161458;27;20211;-84
2023/03/10 06:49:32;;;;;;;9.90;9.60;;;9.30;99.90;;;;;;5161971;27;20234;-83
2023/03/10 06:52:00;;;;;;;9.80;9.50;;;9.40;99.90;;;;;;5161121;27;20255;-83
2023/03/10 06:54:33;;;;;;;9.83;9.53;;;9.40;99.90;;;;;;5153756;27;20297;-82
2023/03/10 06:57:00;;;;;;;10.20;9.90;;;9.40;99.90;;;;;;5151786;27;20243;-83
2023/03/10 06:59:28;;;;;;;9.80;9.50;;;9.40;99.90;;;;;;5153363;27;20236;-83
2023/03/10 07:01:59;;;;;;;9.80;9.50;;;9.40;99.90;;;;;;5150815;27;20232;-83
2023/03/10 07:04:27;;;;;;;10.07;9.77;;;9.40;99.90;;;;;;5151487;27;20219;-83
2023/03/10 07:06:56;;;;;;;10.35;10.05;;;9.50;99.90;;;;;;5150431;27;20397;-83
2023/03/10 07:09:25;;;;;;;10.00;9.70;;;9.50;99.90;;;;;;5151611;27;20235;-83
2023/03/10 07:11:55;;;;;;;9.93;9.63;;;9.60;99.90;;;;;;5151683;27;20247;-85
2023/03/10 07:14:24;;;;;;;10.00;9.70;;;9.60;99.90;;;;;;5158268;27;20232;-85
2023/03/10 07:16:53;;;;;;;10.10;9.80;;;9.70;99.90;;;;;;5153528;27;20327;-84
2023/03/10 07:19:32;;;;;;;10.00;9.70;;;9.70;99.90;;;;;;5151076;27;20252;-83
2023/03/10 07:22:01;;;;;;;9.60;9.30;;;9.70;99.90;;;;;;5151962;27;20244;-83
2023/03/10 07:24:31;;;;;;;9.80;9.50;;;9.80;99.90;;;;;;5149477;27;20232;-83
2023/03/10 07:27:00;;;;;;;9.77;9.47;;;9.80;99.90;;;;;;5148643;27;20208;-84
2023/03/10 07:29:29;;;;;;;9.67;9.37;;;9.80;99.90;;;;;;5149514;27;20232;-83
2023/03/10 07:31:59;;;;;;;9.90;9.60;;;9.90;99.90;;;;;;5149014;27;20243;-84
2023/03/10 07:34:37;;;;;;;10.00;9.70;;;9.90;99.90;;;;;;5143487;27;20284;-85
2023/03/10 07:37:06;;;;;;;9.80;9.50;;;10.00;99.90;;;;;;5139498;27;20232;-84
2023/03/10 07:39:36;;;;;;;9.73;9.43;;;10.00;99.90;;;;;;5147063;27;20236;-84
2023/03/10 07:42:06;;;;;;;9.60;9.30;;;9.90;99.90;;;;;;5147233;27;20232;-84
2023/03/10 07:44:35;;;;;;;9.63;9.33;;;9.90;99.90;;;;;;5147077;27;20242;-84
2023/03/10 07:47:04;;;;;;;9.60;9.30;;;10.00;99.90;;;;;;5137681;27;20216;-85
2023/03/10 07:49:46;;;;;;;9.77;9.47;;;10.00;99.90;;;;;;5146759;27;20275;-83
2023/03/10 07:52:14;;;;;;;9.60;9.30;;;10.10;99.90;;;;;;5146952;27;20266;-84
2023/03/10 07:54:43;;;;;;;10.23;9.93;;;10.10;99.90;;;;;;5145977;27;20248;-84
2023/03/10 07:57:11;;;;;;;10.10;9.80;;;10.20;99.90;;;;;;5146055;27;20224;-84
2023/03/10 07:59:42;;;;;;;10.17;9.87;;;10.20;99.90;;;;;;5145854;27;20242;-84
2023/03/10 08:02:13;;;;;;;10.20;9.90;;;10.20;99.90;;;;;;5146442;27;20216;-84
2023/03/10 08:04:43;;;;;;;9.87;9.57;;;10.30;99.90;;;;;;5145669;27;20208;-83
2023/03/10 08:07:11;;;;;;;9.93;9.63;;;10.40;99.90;;;;;;5145295;27;20228;-82
2023/03/10 08:09:40;;;;;;;10.23;9.93;;;10.40;99.90;;;;;;5145771;27;20254;-83
2023/03/10 08:12:09;;;;;;;10.20;9.90;;;10.50;99.90;;;;;;5146695;27;20239;-83
2023/03/10 08:14:39;;;;;;;9.80;9.50;;;10.40;99.90;;;;;;5147588;27;20259;-84
2023/03/10 08:17:09;;;;;;;10.07;9.77;;;10.40;99.90;;;;;;5146325;27;20262;-83
2023/03/10 08:19:46;;;;;;;10.07;9.77;;;10.50;99.90;;;;;;5145820;27;20299;-82
2023/03/10 08:22:16;;;;;;;10.23;9.93;;;10.50;99.90;;;;;;5145570;27;20227;-82
2023/03/10 08:24:46;;;;;;;10.07;9.77;;;10.50;99.90;;;;;;5145423;27;20242;-83
2023/03/10 08:27:16;;;;;;;10.03;9.73;;;10.50;99.90;;;;;;5146008;27;20231;-83
2023/03/10 08:29:45;;;;;;;9.97;9.67;;;10.50;99.90;;;;;;5146897;27;20235;-83
2023/03/10 08:32:14;;;;;;;9.80;9.50;;;10.50;99.90;;;;;;5148048;27;20228;-82
2023/03/10 08:37:31;;;;;;;10.00;9.70;;;10.50;99.90;;;;;;5148199;27;20216;-82
2023/03/10 08:40:00;;;;;;;9.70;9.40;;;10.50;99.90;;;;;;5149319;27;20279;-83
2023/03/10 08:42:29;;;;;;;9.70;9.40;;;10.60;99.90;;;;;;5146279;27;20244;-79
2023/03/10 08:44:58;;;;;;;10.30;10.00;;;10.60;99.90;;;;;;5148461;27;20231;-82
2023/03/10 08:47:28;;;;;;;10.00;9.70;;;10.70;99.90;;;;;;5148576;27;20220;-81
2023/03/10 08:50:00;;;;;;;10.07;9.77;;;10.70;99.90;;;;;;5148246;27;20250;-82
2023/03/10 08:52:28;;;;;;;10.33;10.03;;;10.70;99.90;;;;;;5148077;27;20254;-81
2023/03/10 08:54:58;;;;;;;9.77;9.47;;;10.80;99.90;;;;;;5148534;27;20300;-82
2023/03/10 08:57:26;;;;;;;9.50;9.20;;;10.80;99.90;;;;;;5147663;27;20212;-81
2023/03/10 08:59:56;;;;;;;9.40;9.10;;;10.90;99.90;;;;;;5148237;27;20228;-82
2023/03/10 09:02:25;;;;;;;9.40;9.10;;;11.00;99.90;;;;;;5147736;27;20216;-82
2023/03/10 09:04:54;;;;;;;9.50;9.20;;;10.90;99.90;;;;;;5146583;27;20231;-81
2023/03/10 09:07:33;;;;;;;9.90;9.60;;;10.80;99.90;;;;;;5148069;27;20228;-83
2023/03/10 09:10:03;;;;;;;10.00;9.70;;;10.80;99.90;;;;;;5147884;27;20258;-82
2023/03/10 09:12:32;;;;;;;10.13;9.83;;;10.80;99.90;;;;;;5147374;27;20235;-82
2023/03/10 09:15:01;;;;;;;10.20;9.90;;;10.70;99.90;;;;;;5147008;27;20247;-82
2023/03/10 09:17:31;;;;;;;10.30;10.00;;;10.70;99.90;;;;;;5148059;27;20289;-83
2023/03/10 09:20:00;;;;;;;10.17;9.87;;;10.70;99.90;;;;;;5156998;27;20259;-82
2023/03/10 09:22:33;;;;;;;10.50;10.20;;;10.70;99.90;;;;;;5158191;27;20232;-83
2023/03/10 09:25:03;;;;;;;9.87;9.57;;;10.80;99.90;;;;;;5150225;27;20216;-81
2023/03/10 09:27:30;;;;;;;9.83;9.53;;;10.90;99.90;;;;;;5150953;27;20232;-83
2023/03/10 09:29:58;;;;;;;10.03;9.73;;;11.00;99.90;;;;;;5151924;27;20232;-83
2023/03/10 09:32:27;;;;;;;9.93;9.63;;;11.10;99.90;;;;;;5151377;27;20243;-82
2023/03/10 09:34:56;;;;;;;9.87;9.57;;;11.10;99.90;;;;;;5150118;27;20231;-83
2023/03/10 09:37:26;;;;;;;10.07;9.77;;;11.10;99.90;;;;;;5151047;27;20238;-83
2023/03/10 09:40:04;;;;;;;9.83;9.53;;;11.10;99.90;;;;;;5149599;27;20232;-83
2023/03/10 09:42:42;;;;;;;10.30;10.00;;;11.10;99.90;;;;;;5151882;27;20232;-83
2023/03/10 09:45:38;;;;;;;10.00;9.70;;;11.30;99.90;;;;;;5149633;27;20232;-81
2023/03/10 09:48:33;;;;;;;10.30;10.00;;;11.50;99.90;;;;;;5152451;27;20219;-83
2023/03/10 09:51:13;;;;;;;10.50;10.20;;;11.60;99.90;;;;;;5130453;27;20228;-83
2023/03/10 09:54:00;;;;;;;10.30;10.00;;;11.70;99.90;;;;;;5130704;27;20237;-84
2023/03/10 09:56:37;;;;;;;10.70;10.40;;;12.00;99.90;;;;;;5132116;27;20255;-83
2023/03/10 09:59:10;;;;;;;10.80;10.50;;;12.10;99.90;;;;;;5130665;27;20252;-84
2023/03/10 10:01:43;;;;;;;10.80;10.50;;;12.10;99.90;;;;;;5129326;27;20240;-83
2023/03/10 10:04:16;;;;;;;10.50;10.20;;;12.20;99.90;;;;;;5136550;27;20271;-84
2023/03/10 10:06:48;;;;;;;10.50;10.20;;;12.20;99.90;;;;;;5150913;27;20248;-83
2023/03/10 10:09:33;;;;;;;10.57;10.27;;;12.20;99.90;;;;;;5146846;27;20224;-84
2023/03/10 10:12:13;;;;;;;10.50;10.20;;;11.90;99.90;;;;;;5152719;27;20267;-85
2023/03/10 10:14:41;;;;;;;10.30;10.00;;;11.30;99.90;;;;;;5153348;27;20326;-84
2023/03/10 10:17:19;;;;;;;10.40;10.10;;;10.90;99.90;;;;;;5155188;27;20220;-84
2023/03/10 10:19:48;;;;;;;10.47;10.17;;;10.60;99.90;;;;;;5160526;27;20354;-81
2023/03/10 10:22:27;;;;;;;10.40;10.10;;;10.30;99.90;;;;;;5160906;27;20232;-80
2023/03/10 10:25:22;;;;;;;9.93;9.63;;;10.10;99.90;;;;;;5161176;27;20200;-80
2023/03/10 10:28:01;;;;;;;9.67;9.37;;;10.00;99.90;;;;;;5161060;27;20241;-83
2023/03/10 10:30:39;;;;;;;9.47;9.17;;;9.90;99.90;;;;;;5162059;27;20204;-83
2023/03/10 10:33:09;;;;;;;9.50;9.20;;;9.90;99.90;;;;;;5159382;27;20224;-83
2023/03/10 10:35:39;;;;;;;9.50;9.20;;;9.70;99.90;;;;;;5141956;27;20216;-84
2023/03/10 10:38:24;;;;;;;9.93;9.63;;;9.70;99.90;;;;;;5141967;27;20225;-81
2023/03/10 10:41:04;;;;;;;9.60;9.30;;;9.60;99.90;;;;;;5141643;27;20252;-82
2023/03/10 10:43:42;;;;;;;9.70;9.40;;;9.50;99.90;;;;;;5141635;28;20213;-83
2023/03/10 10:46:11;;;;;;;9.60;9.30;;;9.40;99.90;;;;;;5145791;27;20224;-82
2023/03/10 10:48:41;;;;;;;9.60;9.30;;;9.40;99.90;;;;;;5160865;27;20208;-83
2023/03/10 10:51:27;;;;;;;10.07;9.77;;;9.30;99.90;;;;;;5153575;27;20285;-82
2023/03/10 10:53:56;;;;;;;10.07;9.77;;;9.30;99.90;;;;;;5141526;27;20232;-82
2023/03/10 10:56:27;;;;;;;9.97;9.67;;;9.20;99.90;;;;;;5161014;27;20220;-82
2023/03/10 10:59:22;;;;;;;9.60;9.30;;;9.20;99.90;;;;;;5161161;27;20213;-83
2023/03/10 11:01:53;;;;;;;9.47;9.17;;;9.20;99.90;;;;;;5149592;27;20235;-81
2023/03/10 11:04:22;;;;;;;9.27;8.97;;;9.30;99.90;;;;;;5133818;27;20216;-82
2023/03/10 11:06:51;;;;;;;9.70;9.40;;;9.50;99.90;;;;;;5155797;27;20216;-82
2023/03/10 11:09:22;;;;;;;9.80;9.50;;;9.70;99.90;;;;;;5150970;27;20231;-82
2023/03/10 11:12:00;;;;;;;9.60;9.30;;;10.00;99.90;;;;;;5149542;27;20274;-83
2023/03/10 11:14:55;;;;;;;9.47;9.17;;;10.20;99.90;;;;;;5157360;27;20223;-84
2023/03/10 11:17:31;;;;;;;9.47;9.17;;;10.30;99.90;;;;;;5150953;27;20334;-84
2023/03/10 11:20:11;;;;;;;9.67;9.37;;;10.40;99.90;;;;;;5149480;27;20245;-83
2023/03/10 11:22:49;;;;;;;9.80;9.50;;;10.50;99.90;;;;;;5142243;27;20212;-83
2023/03/10 11:25:27;;;;;;;9.67;9.37;;;10.50;99.90;;;;;;5142830;27;20236;-81
2023/03/10 11:28:23;;;;;;;10.07;9.77;;;10.50;99.90;;;;;;5148895;27;20227;-82
2023/03/10 11:31:03;;;;;;;10.20;9.90;;;10.60;99.90;;;;;;5146811;27;20232;-80
2023/03/10 11:33:41;;;;;;;10.00;9.70;;;10.90;99.90;;;;;;5147173;27;20237;-82
2023/03/10 11:36:25;;;;;;;9.90;9.60;;;11.00;99.90;;;;;;5137770;27;20264;-80
2023/03/10 11:38:58;;;;;;;9.80;9.50;;;11.30;99.90;;;;;;5148255;27;20279;-78
2023/03/10 11:41:31;;;;;;;9.70;9.40;;;11.70;99.90;;;;;;5147640;27;20269;-80
2023/03/10 11:44:11;;;;;;;9.77;9.47;;;12.10;99.90;;;;;;5147102;27;20260;-80
2023/03/10 11:46:49;;;;;;;9.80;9.50;;;12.60;99.90;;;;;;5146524;27;20228;-79
2023/03/10 11:49:26;;;;;;;9.80;9.50;;;12.90;99.90;;;;;;5146800;27;20216;-80
2023/03/10 11:51:57;;;;;;;10.20;9.90;;;12.90;99.90;;;;;;5147837;27;20231;-80
2023/03/10 11:54:31;;;;;;;10.17;9.87;;;12.60;99.90;;;;;;5150040;27;20285;-80
2023/03/10 11:57:02;;;;;;;10.40;10.10;;;12.30;99.90;;;;;;5144879;27;20239;-82
2023/03/10 11:59:33;;;;;;;10.43;10.13;;;12.20;99.90;;;;;;5146959;27;20232;-80
2023/03/10 12:02:11;;;;;;;10.40;10.10;;;12.20;99.90;;;;;;5141452;27;20323;-80
2023/03/10 12:04:44;;;;;;;10.47;10.17;;;12.00;99.90;;;;;;5148280;27;20224;-81
2023/03/10 12:07:17;;;;;;;10.80;10.50;;;11.90;99.90;;;;;;5152116;27;20236;-80
2023/03/10 12:09:53;;;;;;;10.53;10.23;;;11.70;99.90;;;;;;5152669;27;20232;-80
2023/03/10 12:12:26;;;;;;;10.70;10.40;;;11.60;99.90;;;;;;5150313;27;20298;-81
2023/03/10 12:14:55;;;;;;;10.40;10.10;;;11.60;99.90;;;;;;5151665;27;20228;-80
2023/03/10 12:17:25;;;;;;;10.43;10.13;;;11.50;99.90;;;;;;5151359;27;20327;-81
2023/03/10 12:20:28;;;;;;;10.30;10.00;;;11.50;99.90;;;;;;5150982;27;20224;-81
2023/03/10 12:22:57;;;;;;;10.70;10.40;;;11.50;99.90;;;;;;5149451;27;20238;-80
2023/03/10 12:25:48;;;;;;;10.70;10.40;;;11.50;99.90;;;;;;5154483;27;20288;-80
2023/03/10 12:28:27;;;;;;;10.97;10.67;;;11.50;99.90;;;;;;5158341;27;20257;-80
2023/03/10 12:30:58;;;;;;;10.43;10.13;;;11.40;99.90;;;;;;5153482;27;20261;-81
2023/03/10 12:33:49;;;;;;;10.80;10.50;;;11.40;99.90;;;;;;5150635;27;20247;-81
2023/03/10 12:36:35;;;;;;;10.60;10.30;;;11.40;99.90;;;;;;5149405;27;20247;-86
2023/03/10 12:39:45;;;;;;;10.53;10.23;;;11.40;99.90;;;;;;5148158;27;20259;-83
2023/03/10 12:42:30;;;;;;;10.80;10.50;;;11.50;99.90;;;;;;5150331;27;20262;-81
2023/03/10 12:45:20;;;;;;;11.00;10.70;;;11.50;99.90;;;;;;5149416;27;20235;-80
2023/03/10 12:47:58;;;;;;;10.60;10.30;;;11.60;99.90;;;;;;5148703;27;20216;-81
2023/03/10 12:50:35;;;;;;;11.00;10.70;;;11.80;99.90;;;;;;5148145;27;20251;-82
2023/03/10 12:53:25;;;;;;;11.10;10.80;;;11.90;99.90;;;;;;5147135;27;20271;-80
2023/03/10 12:56:33;;;;;;;11.10;10.80;;;11.80;99.90;;;;;;5130509;27;20335;-81
2023/03/10 12:59:10;;;;;;;11.00;10.70;;;11.60;99.90;;;;;;5127100;27;20224;-82
2023/03/10 13:01:44;;;;;;;10.83;10.53;;;11.30;99.90;;;;;;5126642;27;20298;-81
2023/03/10 13:04:18;;;;;;;10.63;10.33;;;11.10;99.90;;;;;;5127284;27;20228;-79
2023/03/10 13:06:49;;;;;;;10.70;10.40;;;11.10;99.90;;;;;;5130859;27;20237;-79
2023/03/10 13:09:24;;;;;;;10.60;10.30;;;11.00;99.90;;;;;;5148715;27;20216;-80
2023/03/10 13:11:57;;;;;;;10.37;10.07;;;11.10;99.90;;;;;;5148543;27;20251;-82
2023/03/10 13:14:36;;;;;;;10.47;10.17;;;11.30;99.90;;;;;;5150927;27;20291;-81
2023/03/10 13:17:04;;;;;;;10.27;9.97;;;11.60;99.90;;;;;;5146962;27;20243;-82
2023/03/10 13:19:35;;;;;;;10.40;10.10;;;11.70;99.90;;;;;;5149575;27;20212;-80
2023/03/10 13:22:05;;;;;;;9.97;9.67;;;11.70;99.90;;;;;;5147712;27;20246;-82
2023/03/10 13:24:36;;;;;;;10.27;9.97;;;11.90;99.90;;;;;;5147047;27;20228;-82